createdAt,value
2019-04-24T00:01:14.682Z,3.60
2019-04-24T00:02:39.386Z,3.00
2019-04-24T00:03:13.198Z,2.80
2019-04-24T00:05:28.528Z,3.10
2019-04-24T00:07:09.143Z,3.70
2019-04-24T00:08:25.538Z,3.30
2019-04-24T00:09:15.892Z,3.10
2019-04-24T00:10:20.792Z,3.30
2019-04-24T00:11:30.980Z,3.60
2019-04-24T00:12:19.162Z,3.40
2019-04-24T00:13:24.926Z,4.00
2019-04-24T00:15:31.594Z,3.60
2019-04-24T00:16:17.075Z,3.60
2019-04-24T00:17:18.117Z,3.70
2019-04-24T00:20:25.512Z,4.10
2019-04-24T00:24:18.648Z,3.70
2019-04-24T00:25:16.125Z,3.40
2019-04-24T00:26:14.636Z,3.70
2019-04-24T00:27:13.783Z,3.70
2019-04-24T00:28:16.406Z,3.50
2019-04-24T00:29:20.979Z,3.30
2019-04-24T00:30:08.702Z,3.10
2019-04-24T00:31:24.914Z,3.00
2019-04-24T00:33:20.499Z,2.90
2019-04-24T00:37:24.286Z,3.00
2019-04-24T00:38:20.902Z,3.10
2019-04-24T00:39:29.232Z,2.70
2019-04-24T00:40:08.209Z,3.00
2019-04-24T00:41:37.622Z,2.90
2019-04-24T00:42:14.884Z,2.70
2019-04-24T00:43:31.894Z,2.80
2019-04-24T00:44:11.775Z,2.90
2019-04-24T00:46:27.832Z,2.70
2019-04-24T00:47:22.615Z,2.80
2019-04-24T00:48:30.757Z,2.80
2019-04-24T00:49:23.751Z,3.00
2019-04-24T00:50:13.268Z,2.80
2019-04-24T00:51:25.989Z,2.70
2019-04-24T00:52:12.513Z,2.90
2019-04-24T00:53:37.475Z,3.00
2019-04-24T00:54:14.482Z,3.10
2019-04-24T00:55:10.772Z,2.70
2019-04-24T00:56:26.390Z,2.90
2019-04-24T00:57:33.096Z,2.80
2019-04-24T00:58:17.318Z,2.70
2019-04-24T00:59:24.322Z,3.10
2019-04-24T01:00:20.438Z,2.80
2019-04-24T01:01:35.352Z,2.70
2019-04-24T01:03:21.702Z,2.80
2019-04-24T01:04:49.490Z,2.70
2019-04-24T01:05:22.967Z,2.90
2019-04-24T01:06:17.406Z,2.90
2019-04-24T01:09:23.017Z,3.00
2019-04-24T01:10:24.989Z,2.70
2019-04-24T01:11:13.849Z,3.00
2019-04-24T01:12:16.595Z,2.90
2019-04-24T01:13:17.932Z,2.60
2019-04-24T01:15:22.341Z,3.00
2019-04-24T01:17:26.375Z,2.90
2019-04-24T01:18:29.547Z,3.00
2019-04-24T01:21:21.926Z,2.70
2019-04-24T01:22:53.943Z,3.30
2019-04-24T01:23:16.336Z,3.20
2019-04-24T01:24:10.913Z,2.70
2019-04-24T01:25:30.168Z,3.30
2019-04-24T01:26:29.375Z,3.80
2019-04-24T01:27:15.883Z,3.30
2019-04-24T01:28:22.011Z,3.20
2019-04-24T01:31:18.668Z,3.10
2019-04-24T01:32:21.060Z,2.90
2019-04-24T01:35:30.537Z,3.20
2019-04-24T01:36:35.918Z,3.20
2019-04-24T01:38:24.842Z,3.20
2019-04-24T01:39:21.694Z,3.00
2019-04-24T01:40:27.454Z,3.60
2019-04-24T01:41:19.088Z,3.30
2019-04-24T01:42:20.555Z,3.10
2019-04-24T01:44:14.615Z,3.40
2019-04-24T01:45:24.923Z,3.50
2019-04-24T01:46:16.596Z,3.50
2019-04-24T01:47:21.671Z,3.50
2019-04-24T01:48:29.938Z,3.20
2019-04-24T01:49:27.770Z,3.40
2019-04-24T01:50:16.637Z,3.40
2019-04-24T01:51:23.136Z,3.50
2019-04-24T01:54:20.635Z,3.50
2019-04-24T01:56:24.225Z,3.90
2019-04-24T01:58:19.895Z,4.30
2019-04-24T01:59:21.735Z,4.00
2019-04-24T02:02:23.535Z,3.90
2019-04-24T02:03:04.671Z,3.80
2019-04-24T02:04:24.231Z,4.00
2019-04-24T02:05:15.986Z,3.70
2019-04-24T02:06:23.840Z,3.70
2019-04-24T02:08:23.556Z,3.70
2019-04-24T02:09:40.253Z,3.60
2019-04-24T02:12:18.028Z,3.40
2019-04-24T02:13:25.874Z,3.30
2019-04-24T02:14:24.274Z,3.10
2019-04-24T02:15:22.936Z,3.60
2019-04-24T02:16:13.904Z,3.50
2019-04-24T02:17:24.906Z,3.50
2019-04-24T02:18:20.523Z,3.50
2019-04-24T02:19:10.112Z,3.80
2019-04-24T02:20:36.369Z,3.30
2019-04-24T02:22:24.389Z,3.60
2019-04-24T02:24:21.886Z,3.70
2019-04-24T02:25:25.950Z,3.70
2019-04-24T02:26:27.022Z,3.40
2019-04-24T02:27:22.197Z,3.60
2019-04-24T02:28:22.731Z,3.20
2019-04-24T02:30:34.293Z,3.40
2019-04-24T02:32:43.026Z,3.40
2019-04-24T02:34:27.995Z,3.80
2019-04-24T02:35:47.138Z,3.60
2019-04-24T02:36:37.886Z,3.70
2019-04-24T02:37:35.208Z,3.70
2019-04-24T02:38:42.973Z,3.60
2019-04-24T02:40:28.461Z,3.90
2019-04-24T02:41:44.699Z,3.60
2019-04-24T02:42:37.555Z,3.80
2019-04-24T02:45:24.790Z,3.60
2019-04-24T02:46:27.115Z,3.80
2019-04-24T02:47:34.018Z,3.80
2019-04-24T02:49:02.274Z,3.80
2019-04-24T02:50:24.762Z,4.10
2019-04-24T02:51:24.445Z,4.10
2019-04-24T02:52:38.816Z,4.00
2019-04-24T02:53:36.939Z,4.00
2019-04-24T02:54:46.545Z,4.20
2019-04-24T02:58:41.098Z,3.90
2019-04-24T03:00:32.148Z,4.30
2019-04-24T03:01:20.144Z,4.40
2019-04-24T03:03:26.295Z,4.80
2019-04-24T03:05:27.878Z,4.60
2019-04-24T03:08:44.275Z,4.50
2019-04-24T03:09:31.292Z,4.90
2019-04-24T03:12:54.974Z,5.10
2019-04-24T03:14:29.812Z,5.20
2019-04-24T03:15:37.361Z,5.20
2019-04-24T03:16:38.060Z,5.30
2019-04-24T03:17:28.737Z,5.40
2019-04-24T03:18:40.842Z,5.70
2019-04-24T03:20:37.662Z,5.20
2019-04-24T03:21:33.286Z,5.60
2019-04-24T03:22:34.246Z,5.00
2019-04-24T03:24:34.829Z,5.20
2019-04-24T03:25:49.526Z,5.60
2019-04-24T03:27:39.777Z,5.40
2019-04-24T03:28:23.505Z,5.90
2019-04-24T03:29:41.313Z,5.70
2019-04-24T03:33:00.504Z,5.70
2019-04-24T03:34:48.018Z,5.80
2019-04-24T03:35:56.780Z,5.70
2019-04-24T03:38:44.698Z,5.90
2019-04-24T03:39:40.769Z,6.20
2019-04-24T03:45:06.885Z,6.30
2019-04-24T03:47:47.612Z,6.20
2019-04-24T03:51:23.095Z,6.50
2019-04-24T03:52:27.877Z,6.40
2019-04-24T03:54:44.030Z,6.70
2019-04-24T04:01:26.996Z,7.10
2019-04-24T04:02:43.832Z,7.20
2019-04-24T04:08:43.066Z,7.60
2019-04-24T04:10:27.690Z,7.30
2019-04-24T04:12:43.876Z,7.30
2019-04-24T04:14:31.693Z,7.70
2019-04-24T04:15:19.909Z,7.50
2019-04-24T04:16:44.388Z,7.60
2019-04-24T04:20:36.407Z,7.50
2019-04-24T04:21:25.495Z,7.70
2019-04-24T04:23:47.006Z,8.00
2019-04-24T04:24:26.195Z,8.00
2019-04-24T04:25:47.908Z,7.80
2019-04-24T04:28:26.018Z,8.10
2019-04-24T04:30:35.592Z,8.00
2019-04-24T04:32:39.120Z,7.90
2019-04-24T04:33:40.993Z,8.00
2019-04-24T04:35:13.792Z,8.30
2019-04-24T04:37:16.152Z,8.00
2019-04-24T04:38:35.198Z,8.10
2019-04-24T04:39:20.412Z,8.50
2019-04-24T04:40:40.124Z,8.70
2019-04-24T04:41:29.693Z,8.30
2019-04-24T04:42:31.601Z,8.10
2019-04-24T04:43:36.657Z,8.40
2019-04-24T04:44:26.153Z,8.10
2019-04-24T04:48:35.402Z,9.00
2019-04-24T04:49:36.156Z,9.20
2019-04-24T04:50:39.053Z,10.10
2019-04-24T04:51:38.956Z,8.80
2019-04-24T04:54:47.471Z,8.80
2019-04-24T04:55:49.151Z,8.80
2019-04-24T04:56:31.886Z,8.70
2019-04-24T04:57:41.854Z,8.70
2019-04-24T04:58:33.073Z,9.10
2019-04-24T04:59:37.230Z,9.10
2019-04-24T05:00:33.047Z,9.10
2019-04-24T05:01:38.895Z,8.40
2019-04-24T05:02:39.202Z,8.60
2019-04-24T05:04:37.853Z,9.20
2019-04-24T05:05:41.561Z,9.20
2019-04-24T05:08:47.394Z,8.90
2019-04-24T05:11:40.582Z,9.30
2019-04-24T05:13:21.999Z,9.80
2019-04-24T05:15:24.102Z,9.50
2019-04-24T05:17:28.221Z,10.00
2019-04-24T05:18:58.824Z,9.40
2019-04-24T05:20:31.195Z,9.70
2019-04-24T05:21:36.619Z,9.40
2019-04-24T05:23:36.950Z,9.00
2019-04-24T05:24:33.120Z,9.70
2019-04-24T05:25:28.617Z,9.80
2019-04-24T05:29:34.772Z,9.60
2019-04-24T05:30:19.679Z,9.20
2019-04-24T05:31:27.242Z,9.20
2019-04-24T05:32:23.827Z,9.10
2019-04-24T05:33:29.930Z,9.60
2019-04-24T05:34:34.272Z,9.90
2019-04-24T05:35:26.277Z,10.30
2019-04-24T05:36:18.621Z,10.10
2019-04-24T05:37:31.474Z,10.50
2019-04-24T05:38:12.390Z,11.30
2019-04-24T05:39:42.543Z,10.70
2019-04-24T05:40:33.311Z,10.70
2019-04-24T05:41:18.689Z,10.40
2019-04-24T05:42:31.176Z,10.50
2019-04-24T05:43:29.923Z,9.90
2019-04-24T05:45:22.925Z,10.80
2019-04-24T05:47:18.755Z,10.30
2019-04-24T05:48:23.803Z,10.30
2019-04-24T05:49:35.906Z,10.00
2019-04-24T05:50:27.189Z,10.10
2019-04-24T05:51:19.325Z,10.10
2019-04-24T05:52:27.181Z,10.80
2019-04-24T05:53:19.702Z,10.90
2019-04-24T05:54:12.406Z,10.00
2019-04-24T05:55:26.885Z,10.50
2019-04-24T05:56:31.344Z,11.10
2019-04-24T05:58:19.695Z,11.10
2019-04-24T05:59:28.782Z,10.60
2019-04-24T06:00:27.663Z,10.20
2019-04-24T06:01:49.071Z,10.70
2019-04-24T06:03:36.502Z,11.20
2019-04-24T06:04:29.672Z,10.70
2019-04-24T06:06:26.305Z,11.60
2019-04-24T06:08:21.639Z,11.10
2019-04-24T06:10:33.391Z,11.10
2019-04-24T06:11:27.945Z,10.60
2019-04-24T06:12:16.441Z,10.80
2019-04-24T06:13:31.513Z,11.10
2019-04-24T06:14:26.973Z,10.50
2019-04-24T06:15:20.638Z,10.40
2019-04-24T06:16:28.241Z,10.80
2019-04-24T06:18:26.963Z,10.30
2019-04-24T06:20:43.440Z,10.80
2019-04-24T06:21:21.692Z,12.00
2019-04-24T06:22:19.950Z,11.20
2019-04-24T06:23:35.801Z,11.80
2019-04-24T06:24:29.056Z,12.10
2019-04-24T06:25:38.702Z,11.90
2019-04-24T06:26:20.554Z,11.90
2019-04-24T06:27:33.114Z,12.70
2019-04-24T06:28:38.204Z,12.40
2019-04-24T06:31:53.008Z,12.10
2019-04-24T06:33:18.094Z,11.90
2019-04-24T06:34:20.016Z,12.10
2019-04-24T06:36:20.698Z,12.80
2019-04-24T06:38:25.392Z,12.70
2019-04-24T06:39:24.651Z,12.20
2019-04-24T06:41:30.734Z,12.70
2019-04-24T06:42:22.009Z,12.80
2019-04-24T06:44:32.139Z,13.00
2019-04-24T06:45:22.357Z,12.30
2019-04-24T06:46:21.839Z,12.00
2019-04-24T06:47:54.387Z,12.70
2019-04-24T06:48:21.359Z,12.00
2019-04-24T06:50:31.357Z,12.60
2019-04-24T06:51:18.593Z,12.30
2019-04-24T06:52:23.385Z,12.80
2019-04-24T06:53:17.356Z,12.70
2019-04-24T06:55:13.031Z,12.40
2019-04-24T06:56:30.521Z,12.70
2019-04-24T06:57:24.527Z,14.20
2019-04-24T07:01:19.050Z,14.50
2019-04-24T07:07:33.807Z,18.30
2019-04-24T07:08:04.758Z,16.10
2019-04-24T07:10:31.908Z,12.80
2019-04-24T07:11:18.343Z,12.90
2019-04-24T07:12:23.315Z,13.50
2019-04-24T07:14:09.841Z,12.70
2019-04-24T07:15:19.731Z,13.00
2019-04-24T07:16:10.014Z,12.30
2019-04-24T07:17:31.712Z,13.00
2019-04-24T07:19:30.809Z,16.80
2019-04-24T07:20:30.440Z,15.20
2019-04-24T07:22:19.617Z,12.90
2019-04-24T07:24:25.404Z,13.10
2019-04-24T07:25:23.159Z,14.70
2019-04-24T07:26:16.582Z,13.30
2019-04-24T07:28:21.409Z,14.80
2019-04-24T07:29:31.295Z,13.20
2019-04-24T07:30:25.546Z,13.40
2019-04-24T07:32:15.489Z,13.00
2019-04-24T07:34:30.103Z,13.50
2019-04-24T07:35:30.209Z,12.90
2019-04-24T07:37:48.700Z,12.90
2019-04-24T07:39:28.086Z,14.00
2019-04-24T07:40:17.334Z,13.70
2019-04-24T07:43:45.148Z,14.10
2019-04-24T07:44:17.572Z,13.10
2019-04-24T07:45:28.748Z,12.70
2019-04-24T07:46:16.191Z,13.20
2019-04-24T07:47:14.721Z,13.30
2019-04-24T07:48:22.251Z,13.40
2019-04-24T07:49:35.754Z,13.10
2019-04-24T07:50:30.629Z,13.00
2019-04-24T07:53:27.403Z,13.20
2019-04-24T07:54:22.972Z,12.70
2019-04-24T07:55:30.159Z,12.90
2019-04-24T07:57:13.382Z,13.60
2019-04-24T07:58:38.287Z,12.80
2019-04-24T08:00:34.594Z,13.30
2019-04-24T08:01:30.735Z,13.10
2019-04-24T08:03:29.570Z,13.40
2019-04-24T08:06:32.105Z,13.30
2019-04-24T08:07:22.403Z,12.90
2019-04-24T08:08:27.186Z,13.80
2019-04-24T08:09:45.475Z,14.00
2019-04-24T08:10:25.449Z,13.60
2019-04-24T08:11:21.835Z,13.00
2019-04-24T08:13:16.553Z,13.20
2019-04-24T08:14:24.114Z,13.40
2019-04-24T08:15:19.001Z,13.30
2019-04-24T08:17:34.506Z,13.50
2019-04-24T08:19:42.241Z,14.00
2019-04-24T08:20:33.960Z,13.60
2019-04-24T08:21:19.855Z,13.20
2019-04-24T08:22:23.745Z,12.70
2019-04-24T08:23:31.939Z,13.30
2019-04-24T08:24:35.150Z,12.60
2019-04-24T08:25:19.315Z,13.70
2019-04-24T08:26:13.791Z,13.80
2019-04-24T08:27:28.339Z,13.00
2019-04-24T08:28:23.078Z,13.60
2019-04-24T08:29:20.758Z,13.50
2019-04-24T08:30:42.842Z,13.30
2019-04-24T08:31:34.999Z,13.30
2019-04-24T08:32:25.099Z,13.30
2019-04-24T08:33:27.313Z,13.40
2019-04-24T08:35:46.620Z,13.20
2019-04-24T08:36:17.570Z,15.80
2019-04-24T08:37:31.662Z,13.50
2019-04-24T08:38:33.620Z,13.50
2019-04-24T08:40:20.974Z,13.60
2019-04-24T08:43:23.409Z,12.60
2019-04-24T08:45:11.122Z,13.70
2019-04-24T08:47:23.340Z,12.90
2019-04-24T08:49:23.610Z,13.20
2019-04-24T08:50:31.056Z,13.20
2019-04-24T08:53:10.371Z,13.20
2019-04-24T08:54:12.309Z,13.50
2019-04-24T08:56:23.047Z,13.60
2019-04-24T08:57:25.323Z,13.10
2019-04-24T08:58:22.216Z,13.60
2019-04-24T08:59:40.460Z,13.50
2019-04-24T09:00:15.992Z,13.50
2019-04-24T09:02:24.395Z,13.50
2019-04-24T09:05:07.993Z,14.40
2019-04-24T09:06:11.550Z,13.60
2019-04-24T09:07:38.163Z,15.20
2019-04-24T09:08:22.080Z,13.80
2019-04-24T09:09:21.294Z,15.60
2019-04-24T09:12:34.470Z,13.70
2019-04-24T09:15:28.680Z,14.20
2019-04-24T09:17:20.848Z,13.60
2019-04-24T09:18:40.424Z,13.70
2019-04-24T09:19:16.388Z,13.90
2019-04-24T09:20:25.631Z,14.40
2019-04-24T09:21:14.610Z,13.80
2019-04-24T09:22:25.950Z,13.60
2019-04-24T09:23:42.001Z,14.00
2019-04-24T09:25:29.407Z,13.80
2019-04-24T09:28:26.374Z,13.30
2019-04-24T09:29:21.313Z,13.50
2019-04-24T09:30:25.862Z,13.60
2019-04-24T09:31:20.611Z,13.90
2019-04-24T09:32:44.212Z,13.30
2019-04-24T09:34:38.220Z,14.60
2019-04-24T09:35:43.355Z,14.10
2019-04-24T09:36:29.838Z,13.40
2019-04-24T09:38:34.729Z,13.70
2019-04-24T09:39:27.537Z,13.70
2019-04-24T09:42:47.283Z,13.90
2019-04-24T09:43:34.284Z,12.90
2019-04-24T09:44:43.815Z,13.10
2019-04-24T09:45:20.322Z,13.40
2019-04-24T09:46:18.567Z,12.60
2019-04-24T09:47:24.202Z,13.70
2019-04-24T09:49:36.547Z,13.40
2019-04-24T09:53:37.775Z,13.70
2019-04-24T09:54:18.337Z,13.20
2019-04-24T09:55:35.966Z,13.60
2019-04-24T09:56:17.602Z,13.60
2019-04-24T09:58:34.097Z,13.10
2019-04-24T09:59:24.636Z,13.20
2019-04-24T10:00:14.333Z,13.30
2019-04-24T10:02:27.939Z,13.40
2019-04-24T10:03:30.977Z,13.30
2019-04-24T10:08:22.238Z,12.90
2019-04-24T10:10:24.246Z,14.10
2019-04-24T10:11:45.499Z,13.30
2019-04-24T10:12:38.707Z,13.60
2019-04-24T10:13:12.904Z,12.90
2019-04-24T10:14:21.352Z,13.60
2019-04-24T10:15:26.087Z,13.10
2019-04-24T10:16:16.572Z,12.70
2019-04-24T10:17:40.858Z,13.20
2019-04-24T10:18:24.402Z,13.60
2019-04-24T10:19:40.958Z,13.40
2019-04-24T10:20:22.458Z,12.90
2019-04-24T10:21:12.906Z,12.90
2019-04-24T10:22:17.060Z,13.50
2019-04-24T10:23:20.294Z,14.20
2019-04-24T10:24:26.059Z,13.60
2019-04-24T10:25:17.468Z,13.80
2019-04-24T10:26:22.977Z,14.00
2019-04-24T10:27:25.073Z,14.00
2019-04-24T10:28:31.302Z,14.20
2019-04-24T10:30:21.914Z,13.90
2019-04-24T10:31:15.875Z,13.60
2019-04-24T10:34:20.949Z,14.20
2019-04-24T10:35:26.508Z,14.00
2019-04-24T10:36:21.644Z,14.10
2019-04-24T10:37:23.886Z,14.40
2019-04-24T10:39:41.901Z,14.20
2019-04-24T10:41:38.479Z,13.60
2019-04-24T10:42:42.312Z,13.70
2019-04-24T10:43:23.329Z,14.20
2019-04-24T10:44:31.227Z,13.40
2019-04-24T10:46:21.195Z,13.30
2019-04-24T10:48:32.615Z,14.50
2019-04-24T10:49:28.659Z,14.00
2019-04-24T10:50:19.886Z,13.70
2019-04-24T10:51:16.820Z,13.00
2019-04-24T10:52:24.314Z,13.40
2019-04-24T10:53:21.234Z,13.10
2019-04-24T10:54:18.437Z,13.00
2019-04-24T10:55:25.011Z,13.20
2019-04-24T10:57:27.305Z,15.30
2019-04-24T10:58:14.001Z,15.50
2019-04-24T10:59:26.398Z,15.20
2019-04-24T11:00:36.992Z,13.40
2019-04-24T11:02:31.304Z,12.90
2019-04-24T11:03:32.289Z,13.90
2019-04-24T11:04:27.220Z,13.90
2019-04-24T11:06:24.490Z,13.70
2019-04-24T11:07:23.230Z,12.90
2019-04-24T11:08:29.147Z,18.90
2019-04-24T11:12:52.337Z,13.40
2019-04-24T11:15:34.116Z,13.20
2019-04-24T11:16:24.465Z,13.50
2019-04-24T11:17:23.779Z,13.90
2019-04-24T11:18:35.140Z,13.90
2019-04-24T11:19:27.181Z,13.60
2019-04-24T11:20:17.929Z,13.60
2019-04-24T11:22:19.227Z,13.80
2019-04-24T11:23:23.968Z,13.40
2019-04-24T11:24:25.329Z,13.50
2019-04-24T11:25:28.282Z,13.60
2019-04-24T11:26:30.204Z,13.60
2019-04-24T11:29:15.751Z,13.60
2019-04-24T11:31:25.763Z,12.40
2019-04-24T11:33:30.885Z,13.60
2019-04-24T11:35:23.202Z,13.70
2019-04-24T11:36:23.066Z,13.40
2019-04-24T11:37:15.070Z,13.10
2019-04-24T11:38:32.071Z,13.40
2019-04-24T11:39:36.680Z,12.90
2019-04-24T11:41:26.588Z,12.50
2019-04-24T11:42:23.307Z,13.30
2019-04-24T11:43:14.025Z,13.10
2019-04-24T11:44:16.749Z,12.90
2019-04-24T11:45:28.351Z,13.10
2019-04-24T11:46:48.647Z,12.90
2019-04-24T11:47:38.511Z,12.90
2019-04-24T11:48:19.771Z,12.70
2019-04-24T11:49:29.805Z,12.20
2019-04-24T11:50:53.461Z,12.60
2019-04-24T11:52:31.935Z,13.00
2019-04-24T11:54:28.510Z,12.80
2019-04-24T11:55:30.371Z,13.10
2019-04-24T11:56:23.992Z,12.50
2019-04-24T11:57:47.265Z,15.30
2019-04-24T11:58:55.935Z,12.10
2019-04-24T12:00:03.304Z,12.00
2019-04-24T12:01:22.112Z,12.70
2019-04-24T12:03:14.309Z,12.20
2019-04-24T12:05:23.242Z,13.00
2019-04-24T12:07:23.569Z,12.30
2019-04-24T12:08:17.582Z,12.70
2019-04-24T12:09:18.791Z,13.30
2019-04-24T12:10:21.048Z,13.20
2019-04-24T12:12:16.709Z,12.30
2019-04-24T12:13:18.934Z,12.20
2019-04-24T12:14:17.955Z,12.10
2019-04-24T12:15:25.338Z,12.30
2019-04-24T12:16:24.871Z,11.70
2019-04-24T12:17:15.235Z,12.40
2019-04-24T12:18:25.278Z,11.80
2019-04-24T12:19:15.653Z,12.40
2019-04-24T12:20:35.971Z,12.40
2019-04-24T12:21:29.118Z,12.40
2019-04-24T12:22:19.544Z,12.80
2019-04-24T12:23:20.267Z,12.90
2019-04-24T12:24:10.512Z,14.00
2019-04-24T12:25:30.831Z,13.00
2019-04-24T12:27:18.645Z,12.50
2019-04-24T12:28:29.653Z,12.60
2019-04-24T12:29:10.589Z,12.20
2019-04-24T12:30:20.193Z,12.40
2019-04-24T12:31:22.127Z,12.80
2019-04-24T12:32:13.308Z,13.00
2019-04-24T12:33:20.937Z,12.50
2019-04-24T12:34:16.051Z,12.00
2019-04-24T12:35:22.056Z,12.50
2019-04-24T12:36:17.059Z,12.60
2019-04-24T12:39:08.326Z,12.60
2019-04-24T12:40:25.590Z,12.20
2019-04-24T12:41:18.152Z,12.30
2019-04-24T12:42:27.794Z,11.40
2019-04-24T12:43:29.627Z,13.60
2019-04-24T12:45:21.191Z,12.20
2019-04-24T12:46:25.440Z,13.20
2019-04-24T12:47:17.839Z,13.10
2019-04-24T12:48:21.072Z,12.90
2019-04-24T12:49:20.281Z,12.20
2019-04-24T12:50:26.667Z,12.40
2019-04-24T12:51:10.315Z,12.60
2019-04-24T12:52:13.892Z,12.40
2019-04-24T12:53:25.139Z,11.80
2019-04-24T12:55:16.039Z,11.80
2019-04-24T12:56:19.036Z,12.60
2019-04-24T12:57:18.597Z,12.20
2019-04-24T13:00:22.037Z,12.00
2019-04-24T13:01:23.400Z,12.10
2019-04-24T13:02:37.873Z,12.60
2019-04-24T13:05:28.174Z,12.10
2019-04-24T13:06:04.572Z,12.40
2019-04-24T13:07:25.779Z,12.40
2019-04-24T13:10:42.038Z,12.30
2019-04-24T13:11:22.696Z,12.40
2019-04-24T13:12:41.372Z,12.30
2019-04-24T13:13:25.825Z,12.40
2019-04-24T13:14:29.312Z,12.50
2019-04-24T13:16:29.757Z,12.20
2019-04-24T13:17:41.787Z,12.10
2019-04-24T13:18:15.597Z,12.30
2019-04-24T13:19:52.568Z,12.10
2019-04-24T13:20:53.096Z,12.90
2019-04-24T13:21:58.575Z,11.60
2019-04-24T13:23:01.898Z,12.30
2019-04-24T13:24:06.682Z,12.70
2019-04-24T13:25:13.476Z,12.20
2019-04-24T13:26:23.030Z,11.40
2019-04-24T13:28:03.057Z,11.60
2019-04-24T13:28:33.888Z,11.40
2019-04-24T13:29:18.672Z,11.90
2019-04-24T13:31:24.290Z,11.80
2019-04-24T13:34:27.829Z,11.70
2019-04-24T13:35:39.057Z,11.50
2019-04-24T13:36:32.868Z,11.60
2019-04-24T13:37:40.800Z,11.40
2019-04-24T13:39:24.295Z,25.60
2019-04-24T13:40:22.331Z,12.20
2019-04-24T13:41:19.018Z,11.40
2019-04-24T13:43:39.600Z,11.50
2019-04-24T13:44:18.003Z,12.00
2019-04-24T13:45:33.335Z,11.50
2019-04-24T13:46:38.421Z,11.30
2019-04-24T13:47:17.389Z,11.50
2019-04-24T13:48:43.288Z,11.50
2019-04-24T13:49:25.555Z,11.70
2019-04-24T13:50:27.539Z,11.20
2019-04-24T13:51:13.845Z,11.40
2019-04-24T13:53:05.827Z,12.20
2019-04-24T13:53:36.347Z,11.90
2019-04-24T13:56:27.592Z,11.80
2019-04-24T13:57:25.491Z,11.90
2019-04-24T13:58:41.434Z,11.80
2019-04-24T13:59:15.450Z,11.90
2019-04-24T14:02:32.627Z,12.20
2019-04-24T14:04:26.772Z,12.80
2019-04-24T14:05:25.379Z,12.90
2019-04-24T14:07:28.736Z,12.30
2019-04-24T14:08:32.532Z,12.30
2019-04-24T14:09:30.852Z,11.40
2019-04-24T14:10:45.955Z,10.90
2019-04-24T14:13:25.910Z,10.90
2019-04-24T14:14:16.425Z,11.10
2019-04-24T14:15:26.657Z,12.90
2019-04-24T14:17:31.026Z,10.40
2019-04-24T14:18:26.130Z,11.30
2019-04-24T14:20:24.011Z,11.70
2019-04-24T14:21:18.849Z,11.00
2019-04-24T14:22:45.979Z,15.90
2019-04-24T14:23:40.008Z,10.40
2019-04-24T14:24:24.455Z,9.80
2019-04-24T14:25:44.581Z,9.40
2019-04-24T14:27:25.554Z,9.60
2019-04-24T14:28:27.939Z,9.80
2019-04-24T14:30:32.000Z,9.20
2019-04-24T14:31:46.669Z,9.40
2019-04-24T14:32:14.955Z,9.60
2019-04-24T14:33:29.552Z,9.40
2019-04-24T14:34:25.138Z,9.50
2019-04-24T14:35:36.228Z,10.00
2019-04-24T14:36:25.378Z,10.10
2019-04-24T14:37:24.891Z,9.40
2019-04-24T14:38:43.381Z,10.30
2019-04-24T14:39:28.542Z,9.80
2019-04-24T14:40:40.809Z,9.70
2019-04-24T14:41:20.889Z,9.70
2019-04-24T14:42:25.034Z,9.90
2019-04-24T14:43:36.987Z,9.90
2019-04-24T14:44:33.796Z,10.10
2019-04-24T14:45:35.290Z,10.30
2019-04-24T14:46:33.997Z,10.10
2019-04-24T14:48:30.253Z,11.50
2019-04-24T14:51:26.319Z,9.90
2019-04-24T14:52:31.601Z,9.90
2019-04-24T14:53:19.109Z,9.80
2019-04-24T14:54:25.698Z,9.90
2019-04-24T14:56:20.778Z,9.60
2019-04-24T14:57:21.551Z,9.60
2019-04-24T14:58:19.352Z,9.30
2019-04-24T15:00:22.912Z,9.50
2019-04-24T15:01:29.630Z,9.70
2019-04-24T15:02:31.929Z,9.60
2019-04-24T15:04:23.685Z,9.20
2019-04-24T15:05:30.298Z,9.10
2019-04-24T15:06:37.460Z,9.30
2019-04-24T15:08:23.779Z,10.50
2019-04-24T15:09:19.254Z,11.20
2019-04-24T15:10:20.832Z,9.70
2019-04-24T15:11:20.072Z,10.50
2019-04-24T15:13:29.880Z,8.90
2019-04-24T15:14:33.986Z,8.80
2019-04-24T15:15:24.853Z,9.30
2019-04-24T15:17:29.087Z,8.40
2019-04-24T15:18:22.899Z,8.80
2019-04-24T15:20:18.523Z,8.50
2019-04-24T15:21:23.510Z,8.90
2019-04-24T15:23:20.462Z,8.50
2019-04-24T15:28:39.705Z,8.40
2019-04-24T15:30:21.256Z,8.80
2019-04-24T15:31:12.611Z,8.40
2019-04-24T15:32:27.922Z,8.80
2019-04-24T15:33:48.865Z,8.40
2019-04-24T15:34:24.109Z,9.00
2019-04-24T15:35:29.317Z,9.20
2019-04-24T15:36:22.701Z,8.50
2019-04-24T15:38:16.876Z,7.70
2019-04-24T15:39:26.505Z,7.90
2019-04-24T15:42:29.136Z,8.30
2019-04-24T15:44:27.681Z,8.70
2019-04-24T15:46:16.972Z,7.50
2019-04-24T15:47:41.843Z,7.50
2019-04-24T15:49:24.648Z,7.00
2019-04-24T15:50:36.958Z,6.90
2019-04-24T15:51:23.722Z,6.60
2019-04-24T15:51:53.445Z,6.70
2019-04-24T15:52:53.588Z,7.40
2019-04-24T15:53:53.530Z,7.30
2019-04-24T15:54:53.515Z,13.60
2019-04-24T15:55:53.483Z,9.50
2019-04-24T15:56:53.539Z,7.40
2019-04-24T15:57:54.297Z,19.30
2019-04-24T15:59:03.021Z,10.80
2019-04-24T16:00:24.029Z,7.90
2019-04-24T16:03:34.934Z,7.20
2019-04-24T16:04:31.514Z,6.90
2019-04-24T16:04:55.541Z,8.20
2019-04-24T16:05:53.607Z,7.60
2019-04-24T16:06:53.657Z,7.50
2019-04-24T16:07:53.685Z,7.40
2019-04-24T16:08:53.649Z,7.90
2019-04-24T16:09:53.634Z,9.10
2019-04-24T16:10:55.782Z,6.90
2019-04-24T16:11:53.679Z,7.60
2019-04-24T16:12:53.676Z,7.00
2019-04-24T16:14:03.927Z,6.50
2019-04-24T16:15:11.883Z,6.60
2019-04-24T16:17:14.829Z,7.80
2019-04-24T16:19:41.072Z,7.80
2019-04-24T16:20:36.909Z,6.80
2019-04-24T16:21:24.826Z,6.50
2019-04-24T16:23:34.559Z,7.60
2019-04-24T16:24:34.674Z,7.30
2019-04-24T16:25:17.103Z,6.90
2019-04-24T16:26:26.394Z,7.30
2019-04-24T16:27:26.200Z,7.30
2019-04-24T16:29:34.999Z,6.90
2019-04-24T16:30:33.284Z,6.80
2019-04-24T16:31:29.974Z,8.20
2019-04-24T16:33:28.546Z,7.90
2019-04-24T16:35:18.810Z,8.30
2019-04-24T16:36:43.013Z,8.50
2019-04-24T16:39:32.377Z,9.00
2019-04-24T16:40:45.211Z,9.00
2019-04-24T16:41:50.157Z,9.10
2019-04-24T16:43:29.953Z,9.40
2019-04-24T16:44:20.504Z,9.10
2019-04-24T16:45:40.473Z,8.90
2019-04-24T16:47:40.268Z,9.10
2019-04-24T16:49:40.001Z,9.20
2019-04-24T16:52:17.095Z,9.10
2019-04-24T16:53:19.028Z,8.90
2019-04-24T16:54:14.953Z,9.20
2019-04-24T16:55:30.041Z,9.30
2019-04-24T16:57:18.415Z,9.50
2019-04-24T16:58:19.082Z,9.10
2019-04-24T16:59:19.529Z,9.60
2019-04-24T17:02:42.334Z,9.20
2019-04-24T17:03:42.117Z,9.90
2019-04-24T17:04:32.375Z,9.60
2019-04-24T17:05:38.414Z,9.20
2019-04-24T17:07:45.420Z,9.70
2019-04-24T17:10:22.291Z,9.20
2019-04-24T17:13:27.483Z,9.60
2019-04-24T17:15:22.999Z,9.30
2019-04-24T17:16:34.528Z,9.70
2019-04-24T17:17:34.960Z,9.30
2019-04-24T17:18:29.679Z,9.80
2019-04-24T17:19:49.303Z,9.00
2019-04-24T17:20:23.635Z,9.40
2019-04-24T17:22:17.726Z,8.90
2019-04-24T17:23:14.931Z,9.40
2019-04-24T17:24:22.511Z,9.70
2019-04-24T17:26:19.573Z,10.10
2019-04-24T17:27:23.856Z,9.30
2019-04-24T17:28:28.014Z,9.50
2019-04-24T17:30:46.447Z,9.80
2019-04-24T17:32:32.756Z,9.30
2019-04-24T17:34:31.611Z,9.90
2019-04-24T17:35:30.289Z,9.30
2019-04-24T17:36:17.687Z,9.70
2019-04-24T17:36:56.124Z,9.60
2019-04-24T17:37:54.669Z,9.50
2019-04-24T17:38:54.728Z,9.70
2019-04-24T17:39:54.681Z,10.40
2019-04-24T17:40:55.765Z,10.20
2019-04-24T17:41:59.542Z,10.60
2019-04-24T17:43:12.950Z,9.90
2019-04-24T17:44:38.825Z,11.40
2019-04-24T17:45:27.248Z,10.30
2019-04-24T17:47:29.995Z,10.10
2019-04-24T17:48:12.980Z,10.30
2019-04-24T17:49:29.868Z,10.60
2019-04-24T17:51:25.334Z,10.10
2019-04-24T17:52:37.934Z,10.40
2019-04-24T17:53:20.151Z,9.70
2019-04-24T17:55:15.021Z,10.50
2019-04-24T17:57:19.108Z,10.50
2019-04-24T17:58:00.587Z,17.30
2019-04-24T17:58:54.916Z,10.00
2019-04-24T17:59:54.923Z,12.90
2019-04-24T18:00:54.926Z,15.20
2019-04-24T18:01:54.935Z,13.00
2019-04-24T18:03:04.519Z,9.90
2019-04-24T18:03:54.994Z,12.90
2019-04-24T18:04:54.986Z,11.10
2019-04-24T18:05:55.195Z,9.90
2019-04-24T18:06:54.984Z,10.10
2019-04-24T18:07:55.026Z,9.90
2019-04-24T18:08:56.562Z,10.60
2019-04-24T18:09:55.083Z,10.00
2019-04-24T18:10:55.042Z,10.30
2019-04-24T18:11:55.046Z,10.00
2019-04-24T18:12:55.058Z,9.80
2019-04-24T18:13:55.153Z,10.70
2019-04-24T18:14:55.115Z,11.10
2019-04-24T18:15:55.094Z,10.10
2019-04-24T18:16:55.129Z,9.90
2019-04-24T18:17:55.116Z,10.90